Time;durP1;ratioP1;P1;durP2;ratioP2;P2;SDS_P1;SDS_P2;PMS_P1;PMS_P2;Temp;Humidity;BMP_temperature;BMP_pressure;BME280_temperature;BME280_humidity;BME280_pressure;Samples;Min_cycle;Max_cycle;Signal;HPM_P1;HPM_P2
2021/12/19 00:09:04;;;;;;;3.90;3.20;;;;;;;9.65;52.57;99216.09;1733565;81;21129;-59
2021/12/19 00:11:31;;;;;;;4.10;3.08;;;;;;;9.65;52.58;99209.45;1677670;83;21119;-59
2021/12/19 00:13:57;;;;;;;4.75;3.25;;;;;;;9.65;52.56;99209.96;1705342;84;21029;-59
2021/12/19 00:16:24;;;;;;;3.75;2.77;;;;;;;9.68;52.58;99206.13;1707590;84;21079;-58
2021/12/19 00:18:52;;;;;;;3.98;3.20;;;;;;;9.65;52.58;99210.78;1689816;82;21109;-58
2021/12/19 00:21:19;;;;;;;4.62;3.35;;;;;;;9.66;52.59;99197.04;1694598;82;21021;-59
2021/12/19 00:23:48;;;;;;;3.85;3.10;;;;;;;9.65;52.55;99193.54;1741692;80;23260;-60
2021/12/19 00:26:15;;;;;;;4.42;3.22;;;;;;;9.66;52.55;99201.02;1727654;82;22105;-58
2021/12/19 00:28:43;;;;;;;3.58;2.92;;;;;;;9.67;52.54;99186.73;1731079;81;21058;-58
2021/12/19 00:31:10;;;;;;;3.98;3.20;;;;;;;9.68;52.56;99176.95;1731574;82;21125;-58
2021/12/19 00:33:39;;;;;;;3.72;2.90;;;;;;;9.68;52.56;99173.81;1715874;81;21046;-57
2021/12/19 00:36:06;;;;;;;3.87;2.87;;;;;;;9.68;52.57;99162.36;1742105;81;21100;-57
2021/12/19 00:38:32;;;;;;;4.08;3.27;;;;;;;9.68;52.56;99161.03;1698615;83;21046;-58
2021/12/19 00:40:59;;;;;;;3.85;3.02;;;;;;;9.67;52.57;99156.24;1695294;83;21081;-59
2021/12/19 00:43:36;;;;;;;4.70;3.12;;;;;;;9.68;52.56;99144.64;1694932;83;21065;-57
2021/12/19 00:46:07;;;;;;;3.80;2.85;;;;;;;9.68;52.57;99138.49;1756318;80;21498;-58
2021/12/19 00:48:36;;;;;;;3.47;2.92;;;;;;;9.67;52.55;99132.37;1734080;80;21815;-57
2021/12/19 00:51:04;;;;;;;4.60;3.10;;;;;;;9.68;52.57;99135.36;1731354;81;21030;-58
2021/12/19 00:53:30;;;;;;;3.72;2.72;;;;;;;9.68;52.58;99126.55;1733559;82;21046;-58
2021/12/19 00:55:57;;;;;;;4.65;3.55;;;;;;;9.68;52.57;99119.92;1727459;81;21084;-58
2021/12/19 00:58:23;;;;;;;4.20;3.20;;;;;;;9.68;52.57;99115.95;1687771;83;21089;-58
2021/12/19 01:00:49;;;;;;;4.35;2.60;;;;;;;9.69;52.54;99099.05;1695005;83;21124;-57
2021/12/19 01:03:16;;;;;;;3.62;2.98;;;;;;;9.69;52.54;99101.19;1732177;81;21043;-59
2021/12/19 01:05:43;;;;;;;3.60;2.92;;;;;;;9.70;52.56;99108.67;1741837;82;21019;-57
2021/12/19 01:08:11;;;;;;;4.70;3.22;;;;;;;9.70;52.56;99106.02;1740716;81;21022;-58
2021/12/19 01:10:38;;;;;;;3.83;2.80;;;;;;;9.70;52.55;99107.34;1738780;81;21061;-58
2021/12/19 01:13:06;;;;;;;3.42;2.83;;;;;;;9.70;52.56;99098.06;1724365;82;21144;-57
2021/12/19 01:15:32;;;;;;;3.65;2.90;;;;;;;9.70;52.55;99090.92;1731419;82;21002;-59
2021/12/19 01:17:59;;;;;;;4.15;2.45;;;;;;;9.70;52.55;99090.10;1725188;81;21062;-58
2021/12/19 01:20:28;;;;;;;2.80;2.47;;;;;;;9.70;52.56;99083.47;1708794;82;21084;-59
2021/12/19 01:22:54;;;;;;;3.85;3.05;;;;;;;9.70;52.54;99067.05;1700691;83;21069;-58
2021/12/19 01:25:21;;;;;;;3.83;3.02;;;;;;;9.71;52.52;99054.60;1707374;83;21206;-58
2021/12/19 01:27:48;;;;;;;3.22;2.85;;;;;;;9.72;52.53;99044.33;1747063;81;21034;-58
2021/12/19 01:30:14;;;;;;;3.50;2.65;;;;;;;9.59;52.52;99031.16;1747934;81;21509;-59
2021/12/19 01:32:41;;;;;;;3.77;3.20;;;;;;;9.71;52.52;99045.32;1728967;80;21085;-58
2021/12/19 01:35:10;;;;;;;3.20;2.90;;;;;;;9.71;52.53;99040.83;1746310;80;21037;-58
2021/12/19 01:37:37;;;;;;;3.80;2.90;;;;;;;9.71;52.51;99025.43;1749610;81;21952;-64
2021/12/19 01:40:05;;;;;;;3.80;3.08;;;;;;;9.70;52.52;99010.02;1739486;82;21030;-58
2021/12/19 01:42:36;;;;;;;3.27;2.17;;;;;;;9.71;52.52;98988.30;1729565;81;21058;-57
2021/12/19 01:45:06;;;;;;;3.70;2.67;;;;;;;9.71;52.53;98990.44;1733747;82;21030;-58
2021/12/19 01:47:32;;;;;;;3.20;2.67;;;;;;;9.71;52.54;98986.97;1695527;83;21088;-59
2021/12/19 01:49:59;;;;;;;2.75;2.50;;;;;;;9.70;52.55;98966.77;1701634;83;21120;-58
2021/12/19 01:52:28;;;;;;;4.03;2.80;;;;;;;9.70;52.55;98965.45;1703142;82;21567;-58
2021/12/19 01:54:55;;;;;;;3.70;3.00;;;;;;;9.71;52.52;98968.41;1723295;82;21033;-58
2021/12/19 01:57:24;;;;;;;3.00;2.67;;;;;;;9.70;52.56;98954.84;1704673;83;21864;-58
2021/12/19 01:59:51;;;;;;;2.83;2.50;;;;;;;9.70;52.55;98954.84;1712756;83;21586;-58
2021/12/19 02:02:18;;;;;;;3.20;2.50;;;;;;;9.69;52.52;98937.27;1710732;83;21130;-58
2021/12/19 02:04:44;;;;;;;2.67;2.37;;;;;;;9.70;52.55;98938.92;1704753;83;21025;-59
2021/12/19 02:07:12;;;;;;;3.25;2.60;;;;;;;9.70;52.54;98941.06;1711356;83;21595;-59
2021/12/19 02:09:40;;;;;;;2.92;2.40;;;;;;;9.70;52.54;98926.48;1693144;83;21010;-57
2021/12/19 02:12:08;;;;;;;3.37;2.72;;;;;;;9.69;52.54;98920.84;1703306;83;21040;-58
2021/12/19 02:14:36;;;;;;;2.83;2.52;;;;;;;9.70;52.55;98909.23;1714447;83;21162;-58
2021/12/19 02:17:04;;;;;;;2.92;2.42;;;;;;;9.70;52.54;98919.03;1713548;83;21009;-58
2021/12/19 02:19:31;;;;;;;3.45;2.50;;;;;;;9.70;52.55;98907.09;1712048;83;21045;-57
2021/12/19 02:22:00;;;;;;;3.00;2.40;;;;;;;9.70;52.55;98907.09;1705104;83;21046;-57
2021/12/19 02:24:26;;;;;;;3.00;2.70;;;;;;;9.70;52.52;98905.77;1712194;83;21470;-57
2021/12/19 02:26:52;;;;;;;3.27;2.75;;;;;;;9.70;52.56;98911.08;1713644;82;21275;-58
2021/12/19 02:29:19;;;;;;;4.22;2.80;;;;;;;9.70;52.56;98901.80;1705431;83;21049;-57
2021/12/19 02:31:45;;;;;;;3.75;2.72;;;;;;;9.69;52.54;98897.48;1697348;83;21189;-57
2021/12/19 02:34:19;;;;;;;3.98;2.70;;;;;;;9.69;52.57;98906.77;1701093;83;21065;-57
2021/12/19 02:50:15;;;;;;;3.45;2.98;;;;;;;9.68;52.59;98853.39;1711225;83;21057;-57
2021/12/19 02:52:41;;;;;;;3.27;2.72;;;;;;;9.66;52.62;98864.20;1705785;83;21214;-58
2021/12/19 02:55:10;;;;;;;2.52;2.20;;;;;;;9.65;52.62;98851.42;1717345;83;20998;-58
2021/12/19 02:57:38;;;;;;;2.85;2.55;;;;;;;9.65;52.61;98837.35;1715326;82;20998;-57
2021/12/19 03:00:08;;;;;;;2.98;2.50;;;;;;;9.64;52.62;98841.84;1701195;83;21054;-58
2021/12/19 03:02:36;;;;;;;3.52;2.45;;;;;;;9.65;52.64;98825.42;1702513;83;21017;-58
2021/12/19 03:05:03;;;;;;;2.37;2.17;;;;;;;9.65;52.63;98821.44;1710407;83;21887;-56
2021/12/19 03:07:30;;;;;;;2.60;2.15;;;;;;;9.66;52.62;98815.14;1697498;83;20990;-57
2021/12/19 03:13:01;;;;;;;2.27;2.08;;;;;;;9.65;52.62;98799.71;1693156;83;21505;-58
2021/12/19 03:18:07;;;;;;;3.55;2.47;;;;;;;9.65;52.66;98808.18;1702043;83;23277;-58
2021/12/19 03:20:34;;;;;;;3.00;2.27;;;;;;;9.63;52.63;98795.09;1709865;83;21498;-57
2021/12/19 03:23:02;;;;;;;3.00;2.72;;;;;;;9.64;52.65;98795.94;1695496;83;21014;-58
2021/12/19 03:25:29;;;;;;;2.77;2.15;;;;;;;9.63;52.67;98789.80;1702558;82;21467;-58
2021/12/19 03:27:56;;;;;;;2.35;2.15;;;;;;;9.64;52.67;98791.45;1701135;83;21021;-57
2021/12/19 03:30:22;;;;;;;2.40;2.20;;;;;;;9.64;52.69;98776.05;1715179;83;21837;-56
2021/12/19 03:32:48;;;;;;;2.65;2.37;;;;;;;9.64;52.64;98769.42;1711442;83;21033;-57
2021/12/19 03:35:14;;;;;;;2.95;2.40;;;;;;;9.64;52.64;98758.82;1707202;83;21552;-57
2021/12/19 03:37:41;;;;;;;2.95;2.30;;;;;;;9.64;52.65;98774.73;1702128;83;21049;-58
2021/12/19 03:40:12;;;;;;;3.15;2.05;;;;;;;9.64;52.65;98754.84;1706793;83;20994;-58
2021/12/19 03:42:46;;;;;;;3.35;2.17;;;;;;;9.66;52.65;98740.89;1736211;81;22155;-58
2021/12/19 03:45:19;;;;;;;2.70;2.30;;;;;;;9.64;52.64;98733.63;1743230;80;21058;-58
2021/12/19 03:47:46;;;;;;;2.77;2.37;;;;;;;9.65;52.64;98737.91;1734892;81;21536;-58
2021/12/19 03:50:17;;;;;;;2.33;2.00;;;;;;;9.64;52.64;98725.16;1743032;81;21038;-57
2021/12/19 03:52:43;;;;;;;3.10;2.50;;;;;;;9.64;52.66;98719.86;1741752;82;21139;-56
2021/12/19 03:55:09;;;;;;;3.02;2.33;;;;;;;9.64;52.64;98705.27;1740399;82;21101;-58
2021/12/19 03:57:36;;;;;;;2.17;1.98;;;;;;;9.64;52.67;98697.83;1726110;81;21030;-57
2021/12/19 04:00:06;;;;;;;2.45;2.22;;;;;;;9.64;52.64;98703.13;1730630;81;21585;-57
2021/12/19 04:02:34;;;;;;;2.55;2.20;;;;;;;9.65;52.66;98690.17;1729786;82;21014;-57
2021/12/19 04:05:01;;;;;;;2.50;2.30;;;;;;;9.65;52.66;98676.40;1753815;80;21103;-57
2021/12/19 04:07:27;;;;;;;2.42;1.87;;;;;;;9.65;52.65;98668.44;1731635;81;21287;-57
2021/12/19 04:09:55;;;;;;;2.33;2.12;;;;;;;9.64;52.63;98668.14;1732467;82;21608;-56
2021/12/19 04:12:24;;;;;;;2.98;2.30;;;;;;;9.66;52.65;98669.29;1746252;82;21021;-56
2021/12/19 04:14:49;;;;;;;2.67;2.40;;;;;;;9.66;52.61;98660.00;1725678;81;21032;-57
2021/12/19 04:17:17;;;;;;;3.35;2.55;;;;;;;9.66;52.62;98644.09;1723840;81;21053;-57
2021/12/19 04:19:43;;;;;;;2.77;2.50;;;;;;;9.67;52.64;98662.95;1728223;80;21824;-56
2021/12/19 04:22:09;;;;;;;2.83;2.40;;;;;;;9.67;52.62;98648.38;1731105;82;21038;-57
2021/12/19 04:24:37;;;;;;;2.60;2.30;;;;;;;9.67;52.62;98645.72;1722576;81;21048;-60
2021/12/19 04:27:03;;;;;;;2.45;2.10;;;;;;;9.67;52.61;98635.63;1732640;81;21076;-58
2021/12/19 04:29:30;;;;;;;2.65;2.20;;;;;;;9.68;52.61;98637.25;1703658;83;21591;-58
2021/12/19 04:31:56;;;;;;;2.72;2.50;;;;;;;9.68;52.61;98642.07;1693283;83;21123;-58
2021/12/19 04:34:23;;;;;;;2.30;2.08;;;;;;;9.69;52.61;98644.21;1687773;83;21034;-57
2021/12/19 04:37:02;;;;;;;2.22;1.82;;;;;;;9.65;52.61;98635.30;1691046;83;21403;-58
2021/12/19 04:39:41;;;;;;;2.77;2.30;;;;;;;9.69;52.60;98631.77;1719029;82;21050;-57
2021/12/19 04:53:30;;;;;;;2.87;2.58;;;;;;;9.65;52.67;98584.91;1699406;83;20982;-57
2021/12/19 04:56:18;;;;;;;3.15;2.72;;;;;;;9.64;52.69;98579.31;1740505;81;21008;-58
2021/12/19 05:03:49;;;;;;;2.50;2.08;;;;;;;9.63;52.71;98559.09;1705152;83;21033;-56
2021/12/19 05:06:33;;;;;;;3.62;2.47;;;;;;;9.63;52.72;98559.09;1725263;81;21067;-57
2021/12/19 05:14:17;;;;;;;3.10;2.35;;;;;;;9.63;52.78;98525.95;1732097;81;21094;-58
2021/12/19 05:16:44;;;;;;;2.30;2.08;;;;;;;9.63;52.78;98525.14;1682869;83;20998;-59
2021/12/19 05:19:47;;;;;;;2.70;2.40;;;;;;;9.63;52.79;98513.20;1739539;82;21177;-58
2021/12/19 05:21:44;;;;;;;2.95;2.20;;;;;;;9.63;52.79;98496.78;1709948;81;21073;-58
2021/12/19 05:24:49;;;;;;;2.50;2.30;;;;;;;9.62;52.78;98501.78;1736344;81;21094;-57
2021/12/19 05:26:45;;;;;;;2.58;1.92;;;;;;;9.63;52.78;98484.03;1717605;80;21646;-57
2021/12/19 05:29:12;;;;;;;2.50;2.30;;;;;;;9.62;52.79;98481.90;1729742;81;21030;-58
2021/12/19 05:31:39;;;;;;;2.72;2.10;;;;;;;9.63;52.80;98489.34;1736471;81;21061;-57
2021/12/19 05:45:20;;;;;;;2.22;2.02;;;;;;;9.62;52.79;98456.70;1852806;75;21494;-58
2021/12/19 05:47:23;;;;;;;2.70;2.30;;;;;;;9.61;52.83;98444.45;1836932;75;21026;-58
2021/12/19 05:49:50;;;;;;;3.90;2.40;;;;;;;9.62;52.85;98446.62;1870827;75;21537;-57
2021/12/19 05:52:17;;;;;;;2.40;2.00;;;;;;;9.61;52.86;98439.14;1858615;75;21171;-56
2021/12/19 05:54:44;;;;;;;2.27;2.08;;;;;;;9.62;52.85;98454.57;1858633;75;21118;-57
2021/12/19 05:57:10;;;;;;;2.47;2.25;;;;;;;9.63;52.85;98433.14;1857934;75;21466;-58
2021/12/19 05:59:38;;;;;;;2.77;2.25;;;;;;;9.63;52.85;98417.23;1858603;75;21006;-58
2021/12/19 06:02:04;;;;;;;2.37;1.90;;;;;;;9.63;52.84;98419.88;1858090;75;21510;-57
2021/12/19 06:04:30;;;;;;;2.58;2.15;;;;;;;9.64;52.84;98414.09;1859289;75;21037;-57
2021/12/19 06:06:57;;;;;;;2.25;2.05;;;;;;;9.65;52.85;98413.06;1851641;75;21133;-56
2021/12/19 06:09:24;;;;;;;2.70;2.50;;;;;;;9.65;52.84;98405.11;1844682;77;21477;-57
2021/12/19 06:11:50;;;;;;;3.25;2.35;;;;;;;9.67;52.81;98392.47;1856705;75;21041;-57
2021/12/19 06:14:17;;;;;;;2.77;2.17;;;;;;;9.68;52.83;98398.11;1858103;75;21458;-58
2021/12/19 06:16:43;;;;;;;2.30;2.10;;;;;;;9.68;52.80;98403.89;1863914;75;21026;-57
2021/12/19 06:19:10;;;;;;;2.45;2.10;;;;;;;9.68;52.82;98398.11;1854141;75;21538;-58
2021/12/19 06:21:36;;;;;;;2.60;2.20;;;;;;;9.69;52.80;98405.03;1857503;75;20990;-57
2021/12/19 06:24:02;;;;;;;2.77;2.40;;;;;;;9.70;52.80;98400.56;1853254;75;21032;-58
2021/12/19 06:26:32;;;;;;;2.45;2.15;;;;;;;9.71;52.79;98407.49;1858976;75;20997;-56
2021/12/19 06:28:57;;;;;;;2.65;2.05;;;;;;;9.71;52.77;98403.52;1862224;75;21008;-58
2021/12/19 06:31:24;;;;;;;2.25;1.67;;;;;;;9.71;52.77;98393.72;1857609;75;21756;-58
2021/12/19 06:33:50;;;;;;;2.60;2.12;;;;;;;9.71;52.77;98384.44;1851379;75;21041;-58
2021/12/19 06:36:18;;;;;;;2.83;2.40;;;;;;;9.72;52.77;98374.16;1836051;76;21053;-58
2021/12/19 06:38:44;;;;;;;2.95;2.33;;;;;;;9.73;52.77;98369.66;1845516;76;21010;-57
2021/12/19 06:41:10;;;;;;;2.60;2.10;;;;;;;9.73;52.77;98357.73;1847492;76;20982;-58
2021/12/19 06:43:37;;;;;;;2.80;2.40;;;;;;;9.73;52.76;98351.09;1849228;76;21066;-57
2021/12/19 06:46:03;;;;;;;2.12;1.92;;;;;;;9.73;52.76;98342.62;1843369;76;21514;-58
2021/12/19 06:48:30;;;;;;;3.00;2.25;;;;;;;9.75;52.75;98318.56;1842014;76;21021;-57
2021/12/19 06:50:56;;;;;;;2.90;2.25;;;;;;;9.75;52.75;98326.52;1846594;76;21427;-57
2021/12/19 06:53:22;;;;;;;2.90;2.60;;;;;;;9.74;52.75;98327.04;1847242;76;21057;-58
2021/12/19 06:55:49;;;;;;;3.15;2.40;;;;;;;9.75;52.74;98323.36;1840916;77;21198;-57
2021/12/19 06:58:15;;;;;;;2.55;2.10;;;;;;;9.75;52.77;98315.91;1845250;76;21048;-59
2021/12/19 07:00:42;;;;;;;2.40;2.15;;;;;;;9.75;52.75;98324.68;1840148;76;21520;-58
2021/12/19 07:03:10;;;;;;;2.75;2.15;;;;;;;9.75;52.76;98329.98;1843104;76;21516;-58
2021/12/19 07:05:38;;;;;;;2.90;2.60;;;;;;;9.76;52.79;98339.59;1844364;76;21482;-57
2021/12/19 07:08:05;;;;;;;2.85;2.50;;;;;;;9.76;52.76;98355.50;1842184;76;21125;-58
2021/12/19 07:10:31;;;;;;;2.70;2.27;;;;;;;9.77;52.76;98349.69;1842013;76;21548;-58
2021/12/19 07:12:58;;;;;;;2.92;2.40;;;;;;;9.77;52.76;98344.38;1841036;76;21022;-56
2021/12/19 07:15:24;;;;;;;3.52;2.42;;;;;;;9.77;52.75;98339.08;1828198;76;21528;-57
2021/12/19 07:17:51;;;;;;;3.58;2.55;;;;;;;9.78;52.79;98339.40;1847671;76;21025;-58
2021/12/19 07:20:18;;;;;;;2.85;2.20;;;;;;;9.79;52.75;98326.44;1841051;76;21850;-58
2021/12/19 07:22:44;;;;;;;3.52;2.50;;;;;;;9.79;52.78;98328.60;1842267;76;20990;-57
2021/12/19 07:25:11;;;;;;;2.98;2.62;;;;;;;9.79;52.79;98306.06;1851022;76;21010;-57
2021/12/19 07:27:38;;;;;;;3.20;2.47;;;;;;;9.80;52.79;98293.61;1833555;76;21069;-58
2021/12/19 07:30:06;;;;;;;2.95;2.62;;;;;;;9.79;52.78;98292.80;1840975;76;21029;-59
2021/12/19 07:32:34;;;;;;;4.08;2.80;;;;;;;9.78;52.81;98277.89;1845227;76;21143;-58
2021/12/19 07:35:01;;;;;;;3.80;3.10;;;;;;;9.79;52.81;98262.30;1841458;76;21069;-58
2021/12/19 07:37:27;;;;;;;2.58;2.20;;;;;;;9.80;52.80;98264.44;1850771;76;21029;-56
2021/12/19 07:39:59;;;;;;;3.83;2.85;;;;;;;9.80;52.83;98252.50;1844144;77;21502;-57
2021/12/19 07:42:22;;;;;;;3.42;2.92;;;;;;;9.80;52.83;98259.94;1849415;76;21575;-57
2021/12/19 07:44:49;;;;;;;3.15;2.70;;;;;;;9.80;52.84;98256.48;1856194;76;21134;-57
2021/12/19 07:47:15;;;;;;;3.87;2.58;;;;;;;9.81;52.84;98247.48;1854111;76;21510;-57
2021/12/19 07:49:42;;;;;;;3.08;2.45;;;;;;;9.80;52.85;98232.09;1853231;77;21088;-57
2021/12/19 07:52:08;;;;;;;2.90;2.60;;;;;;;9.82;52.84;98234.55;1854543;76;21045;-57
2021/12/19 07:54:35;;;;;;;4.08;2.98;;;;;;;9.82;52.85;98238.53;1855835;76;21068;-57
2021/12/19 07:57:02;;;;;;;3.10;2.70;;;;;;;9.82;52.85;98235.36;1854799;76;21122;-59
2021/12/19 07:59:29;;;;;;;3.90;2.70;;;;;;;9.82;52.86;98230.05;1854842;76;20992;-58
2021/12/19 08:01:57;;;;;;;3.47;3.02;;;;;;;9.83;52.87;98252.08;1854224;76;21485;-58
2021/12/19 08:04:23;;;;;;;4.35;3.20;;;;;;;9.69;52.87;98226.03;1847512;76;21005;-57
2021/12/19 08:06:50;;;;;;;3.80;3.22;;;;;;;9.83;52.85;98237.49;1851973;76;21032;-57
2021/12/19 08:09:37;;;;;;;3.80;3.35;;;;;;;9.84;52.86;98224.55;1856106;76;21040;-57
2021/12/19 08:11:45;;;;;;;3.72;2.90;;;;;;;9.84;52.88;98220.58;1863762;76;21009;-56
2021/12/19 08:14:14;;;;;;;3.27;2.85;;;;;;;9.86;52.87;98215.08;1847860;76;21064;-57
2021/12/19 08:16:42;;;;;;;4.00;3.33;;;;;;;9.85;52.88;98203.66;1852335;76;21478;-59
2021/12/19 08:19:09;;;;;;;3.08;2.58;;;;;;;9.86;52.89;98198.64;1852524;76;21550;-57
2021/12/19 08:21:35;;;;;;;3.62;3.30;;;;;;;9.86;52.92;98198.64;1849752;76;21121;-56
2021/12/19 08:24:10;;;;;;;3.42;2.70;;;;;;;9.87;52.88;98211.39;1852446;76;21532;-59
2021/12/19 08:26:34;;;;;;;4.03;3.20;;;;;;;9.87;52.90;98204.27;1851475;76;21549;-58
2021/12/19 08:29:01;;;;;;;4.08;3.25;;;;;;;9.88;52.89;98201.10;1856256;76;21561;-58
2021/12/19 08:31:27;;;;;;;3.70;3.30;;;;;;;9.87;52.90;98200.30;1856256;76;21008;-57
2021/12/19 08:33:54;;;;;;;3.72;3.10;;;;;;;9.89;52.89;98204.05;1849519;76;22291;-57
2021/12/19 08:36:21;;;;;;;3.17;2.87;;;;;;;9.89;52.91;98194.77;1845777;76;21081;-57
2021/12/19 08:38:48;;;;;;;3.35;2.98;;;;;;;9.89;52.89;98191.62;1830721;77;21057;-59
2021/12/19 08:41:14;;;;;;;3.45;3.10;;;;;;;9.90;52.91;98189.27;1830916;77;21072;-58
2021/12/19 08:43:40;;;;;;;3.55;3.02;;;;;;;9.90;52.94;98189.27;1821982;78;21013;-56
2021/12/19 08:46:09;;;;;;;3.20;2.90;;;;;;;9.92;53.15;98175.29;1831942;77;21570;-58
2021/12/19 08:48:36;;;;;;;3.83;3.10;;;;;;;9.93;53.20;98171.63;1835247;77;21060;-59
2021/12/19 08:51:03;;;;;;;3.75;2.72;;;;;;;9.93;53.21;98166.81;1835987;77;20987;-58
2021/12/19 08:53:29;;;;;;;4.28;3.55;;;;;;;9.94;53.20;98151.22;1825163;77;21010;-59
2021/12/19 08:55:56;;;;;;;4.10;3.00;;;;;;;9.94;53.22;98153.35;1836909;77;21469;-59
2021/12/19 08:58:23;;;;;;;4.20;3.00;;;;;;;9.95;53.20;98147.05;1836807;77;21056;-62
2021/12/19 09:00:49;;;;;;;3.35;2.92;;;;;;;9.96;53.19;98149.98;1825323;77;21041;-58
2021/12/19 09:03:17;;;;;;;3.70;3.15;;;;;;;9.97;53.17;98151.63;1823243;77;21536;-58
2021/12/19 09:05:44;;;;;;;3.85;3.30;;;;;;;9.96;53.16;98147.33;1836847;77;21014;-59
2021/12/19 09:08:10;;;;;;;3.75;2.92;;;;;;;9.97;53.15;98144.19;1828577;77;21073;-59
2021/12/19 09:10:38;;;;;;;3.77;2.92;;;;;;;9.99;53.13;98140.83;1818733;77;20971;-59
2021/12/19 09:13:05;;;;;;;4.35;3.60;;;;;;;9.98;53.12;98138.66;1837089;77;21049;-59
2021/12/19 09:15:31;;;;;;;4.25;3.00;;;;;;;9.98;53.10;98130.70;1822716;78;21481;-58
2021/12/19 09:17:58;;;;;;;4.28;2.98;;;;;;;9.99;53.09;98128.37;1835377;77;21061;-59
2021/12/19 09:20:25;;;;;;;5.28;3.15;;;;;;;10.00;53.09;98127.84;1837161;77;21473;-58
2021/12/19 09:22:51;;;;;;;4.28;3.00;;;;;;;9.99;53.09;98117.76;1829440;77;21130;-58
2021/12/19 09:25:19;;;;;;;3.60;3.30;;;;;;;10.01;53.06;98114.91;1834791;77;21497;-59
2021/12/19 09:27:47;;;;;;;3.62;3.08;;;;;;;10.02;53.05;98113.88;1836961;77;20986;-57
2021/12/19 09:30:14;;;;;;;3.98;2.80;;;;;;;10.02;53.05;98111.22;1836750;77;21457;-59
2021/12/19 09:32:42;;;;;;;4.12;3.02;;;;;;;10.01;53.02;98098.98;1836887;77;20975;-58
2021/12/19 09:35:10;;;;;;;4.15;3.25;;;;;;;10.03;53.03;98099.59;1836706;77;21131;-57
2021/12/19 09:37:36;;;;;;;3.77;3.08;;;;;;;10.02;52.99;98089.50;1844324;76;20983;-59
2021/12/19 09:40:06;;;;;;;4.00;3.20;;;;;;;10.03;53.00;98096.42;1846579;76;21065;-58
2021/12/19 09:42:35;;;;;;;3.08;2.65;;;;;;;10.04;52.99;98083.97;1841555;76;21014;-59
2021/12/19 09:45:03;;;;;;;4.03;3.15;;;;;;;10.04;52.99;98070.70;1843916;76;21077;-58
2021/12/19 09:47:31;;;;;;;4.80;3.58;;;;;;;10.04;52.98;98058.28;1846833;76;21134;-59
2021/12/19 09:49:57;;;;;;;4.00;3.00;;;;;;;10.05;52.97;98063.06;1843488;77;21606;-57
2021/12/19 09:52:24;;;;;;;3.60;3.17;;;;;;;10.05;52.95;98051.13;1834828;76;21080;-57
2021/12/19 09:54:51;;;;;;;4.72;3.45;;;;;;;10.04;52.95;98054.30;1844380;77;21320;-59
2021/12/19 09:57:17;;;;;;;3.98;3.33;;;;;;;10.06;52.92;98049.28;1843921;76;21033;-57
2021/12/19 09:59:43;;;;;;;4.45;3.20;;;;;;;10.06;52.92;98051.94;1844780;76;21474;-57
2021/12/19 10:02:10;;;;;;;3.67;2.80;;;;;;;10.07;52.93;98041.64;1842422;76;20983;-58
2021/12/19 10:04:40;;;;;;;4.00;3.17;;;;;;;10.06;52.91;98040.80;1834712;76;21009;-58
2021/12/19 10:07:20;;;;;;;4.58;3.22;;;;;;;10.07;52.92;98045.10;1835346;76;21480;-57
2021/12/19 10:10:04;;;;;;;4.12;3.20;;;;;;;10.07;52.89;98027.05;1835362;76;21022;-58
2021/12/19 10:12:38;;;;;;;4.33;3.20;;;;;;;10.08;52.91;98014.07;1827712;76;21201;-58
2021/12/19 10:15:14;;;;;;;4.53;3.10;;;;;;;10.07;52.91;98012.45;1840135;76;21022;-58
2021/12/19 10:17:40;;;;;;;3.30;2.80;;;;;;;10.06;52.91;98006.31;1839852;76;21004;-58
2021/12/19 10:20:13;;;;;;;4.75;3.50;;;;;;;10.06;52.91;98004.98;1846224;76;20976;-57
2021/12/19 10:22:44;;;;;;;4.25;3.37;;;;;;;10.06;52.91;97993.05;1821377;76;21034;-58
2021/12/19 10:25:20;;;;;;;4.45;3.17;;;;;;;10.07;52.91;97991.23;1855840;76;21122;-58
2021/12/19 10:27:56;;;;;;;4.97;3.67;;;;;;;10.07;52.91;97975.31;1813220;77;21019;-58
2021/12/19 10:30:36;;;;;;;3.98;2.95;;;;;;;10.07;52.93;97970.00;1847422;76;22020;-57
2021/12/19 10:33:10;;;;;;;5.70;3.25;;;;;;;10.07;52.94;97966.02;1836303;76;21531;-58
2021/12/19 10:35:40;;;;;;;4.30;3.05;;;;;;;10.08;52.94;97955.70;1845440;76;21053;-57
2021/12/19 10:38:16;;;;;;;5.62;3.52;;;;;;;10.07;52.93;97939.50;1844962;76;21166;-58
2021/12/19 10:41:10;;;;;;;3.85;2.92;;;;;;;10.07;52.94;97938.98;1853334;76;21455;-57
2021/12/19 10:44:02;;;;;;;3.98;3.15;;;;;;;10.08;52.92;97931.82;1860238;76;20974;-58
2021/12/19 10:46:39;;;;;;;4.35;3.05;;;;;;;10.07;52.93;97919.08;1843778;76;21037;-57
2021/12/19 10:49:24;;;;;;;3.37;2.70;;;;;;;10.08;52.96;97915.91;1840720;76;21089;-58
2021/12/19 10:51:51;;;;;;;3.75;3.00;;;;;;;10.08;52.95;97909.27;1844682;76;22105;-57
2021/12/19 10:54:18;;;;;;;3.55;2.80;;;;;;;10.08;52.96;97901.31;1856573;76;21017;-57
2021/12/19 10:56:45;;;;;;;3.90;2.92;;;;;;;10.08;52.96;97898.66;1866845;76;21596;-55
2021/12/19 10:59:16;;;;;;;5.08;3.58;;;;;;;10.09;52.96;97902.95;1857453;76;21022;-59
2021/12/19 11:01:48;;;;;;;3.77;3.08;;;;;;;10.10;52.94;97887.33;1845935;76;21013;-57
2021/12/19 11:04:18;;;;;;;4.45;3.62;;;;;;;10.11;52.94;97888.97;1841973;76;21880;-58
2021/12/19 11:06:58;;;;;;;3.47;2.90;;;;;;;10.12;52.96;97880.80;1838357;76;21536;-58
2021/12/19 11:09:37;;;;;;;3.27;2.90;;;;;;;10.12;52.93;97875.49;1845337;76;21613;-56
2021/12/19 11:12:11;;;;;;;5.30;3.20;;;;;;;10.13;52.93;97874.45;1843620;76;21062;-58
2021/12/19 11:14:40;;;;;;;;;;;;;;;10.03;52.92;97856.85;1848237;76;21153;-58
2021/12/19 11:17:15;;;;;;;3.95;2.77;;;;;;;10.15;52.94;97875.05;1843280;77;20512;-58
2021/12/19 11:19:42;;;;;;;3.30;2.65;;;;;;;10.12;52.98;97871.52;1843209;76;21053;-59
2021/12/19 11:22:09;;;;;;;3.55;2.85;;;;;;;10.13;52.99;97871.80;1837049;76;21026;-60
2021/12/19 11:24:36;;;;;;;3.65;2.90;;;;;;;10.13;52.97;97865.16;1846655;76;21014;-58
2021/12/19 11:27:06;;;;;;;3.77;2.72;;;;;;;10.15;52.96;97859.13;1843186;76;20998;-60
2021/12/19 11:29:33;;;;;;;3.37;2.50;;;;;;;10.16;52.95;97862.59;1825983;76;22030;-58
2021/12/19 11:32:06;;;;;;;3.05;2.75;;;;;;;10.16;52.94;97852.81;1846006;76;21010;-60
2021/12/19 11:34:43;;;;;;;3.50;2.50;;;;;;;10.18;52.95;97848.63;1843036;76;21541;-59
2021/12/19 11:37:16;;;;;;;3.33;2.83;;;;;;;10.19;52.94;97843.61;1842149;76;20990;-60
2021/12/19 11:39:47;;;;;;;4.28;2.70;;;;;;;10.19;52.96;97840.44;1837002;77;21468;-57
2021/12/19 11:42:18;;;;;;;3.92;2.35;;;;;;;10.20;52.93;97843.92;1751549;80;21363;-58
2021/12/19 11:47:56;;;;;;;3.60;2.45;;;;;;;10.21;52.90;97842.36;1771779;80;21010;-59
2021/12/19 11:50:28;;;;;;;3.27;2.47;;;;;;;10.23;52.91;97844.81;1773966;80;21069;-60
2021/12/19 11:52:58;;;;;;;3.08;2.45;;;;;;;10.22;52.93;97844.00;1772191;80;21061;-60
2021/12/19 11:55:28;;;;;;;4.00;2.25;;;;;;;10.23;52.92;97836.84;1778910;80;21816;-58
2021/12/19 11:58:15;;;;;;;2.83;2.40;;;;;;;10.25;52.94;97828.16;1771492;80;21054;-59
2021/12/19 12:00:54;;;;;;;3.00;2.20;;;;;;;10.26;52.92;97835.59;1771089;80;21073;-59
2021/12/19 12:03:23;;;;;;;3.75;2.87;;;;;;;10.26;52.94;97829.80;1766300;80;21111;-59
2021/12/19 12:05:55;;;;;;;2.80;2.30;;;;;;;10.27;52.93;97823.97;1771881;80;21061;-59
2021/12/19 12:08:23;;;;;;;3.27;2.58;;;;;;;10.28;52.91;97825.09;1771446;80;21045;-58
2021/12/19 12:11:01;;;;;;;3.20;2.10;;;;;;;10.28;52.93;97826.94;1775217;80;21110;-58
2021/12/19 12:13:40;;;;;;;2.83;2.25;;;;;;;10.30;52.93;97823.06;1775310;80;21081;-58
2021/12/19 12:18:43;;;;;;;2.40;1.80;;;;;;;10.31;52.90;97828.66;1777370;78;21526;-59
2021/12/19 12:21:33;;;;;;;2.67;2.27;;;;;;;10.32;52.90;97834.28;1828905;77;21124;-58
2021/12/19 12:24:04;;;;;;;3.25;2.22;;;;;;;10.34;52.89;97834.08;1833800;77;21530;-59
2021/12/19 12:26:44;;;;;;;2.47;2.00;;;;;;;10.34;52.87;97828.25;1831555;77;21491;-58
2021/12/19 12:29:09;;;;;;;2.65;2.05;;;;;;;10.34;52.89;97821.61;1833113;77;21036;-59
2021/12/19 12:31:36;;;;;;;2.47;1.90;;;;;;;10.35;52.89;97823.25;1829853;77;21439;-58
2021/12/19 12:34:03;;;;;;;2.47;2.10;;;;;;;10.36;52.89;97824.86;1835249;77;21831;-59
2021/12/19 12:36:31;;;;;;;3.52;2.33;;;;;;;10.37;52.88;97821.69;1834335;77;21005;-58
2021/12/19 12:38:57;;;;;;;2.47;2.00;;;;;;;10.37;52.87;97815.89;1856771;76;21021;-59
2021/12/19 12:42:11;;;;;;;2.70;2.17;;;;;;;10.38;52.85;97817.50;1853714;76;21029;-60
2021/12/19 12:44:05;;;;;;;2.70;2.00;;;;;;;10.39;52.83;97827.10;1819610;76;21076;-60
2021/12/19 12:46:31;;;;;;;;;;;;;;;10.41;52.82;97785.72;1857635;76;21068;-56
2021/12/19 12:49:05;;;;;;;3.20;2.02;;;;;;;10.46;54.43;97783.77;1855371;76;20162;-58
2021/12/19 12:51:42;;;;;;;2.72;2.17;;;;;;;10.53;57.46;97819.05;1849621;77;21560;-58